createdAt,value
2023-05-11T00:00:46.148Z,13.35
2023-05-11T00:03:14.484Z,13.35
2023-05-11T00:05:44.071Z,13.35
2023-05-11T00:08:12.282Z,13.35
2023-05-11T00:10:41.255Z,13.34
2023-05-11T00:13:09.364Z,13.34
2023-05-11T00:15:37.429Z,13.34
2023-05-11T00:18:05.701Z,13.32
2023-05-11T00:20:33.823Z,13.32
2023-05-11T00:23:03.454Z,13.31
2023-05-11T00:25:31.491Z,13.30
2023-05-11T00:27:59.518Z,13.28
2023-05-11T00:30:27.639Z,13.28
2023-05-11T00:32:55.800Z,13.26
2023-05-11T00:35:26.575Z,13.25
2023-05-11T00:37:54.585Z,13.24
2023-05-11T00:40:24.097Z,13.24
2023-05-11T00:42:52.296Z,13.22
2023-05-11T00:45:20.344Z,13.21
2023-05-11T00:47:48.588Z,13.21
2023-05-11T00:50:17.069Z,13.18
2023-05-11T00:52:46.423Z,13.18
2023-05-11T00:55:16.056Z,13.18
2023-05-11T00:57:46.321Z,13.15
2023-05-11T01:00:15.126Z,13.14
2023-05-11T01:02:43.493Z,13.13
2023-05-11T01:05:11.842Z,13.12
2023-05-11T01:07:46.906Z,13.12
2023-05-11T01:10:22.431Z,13.09
2023-05-11T01:13:00.088Z,13.10
2023-05-11T01:15:36.889Z,13.10
2023-05-11T01:18:16.739Z,13.11
2023-05-11T01:20:48.189Z,13.11
2023-05-11T01:24:03.748Z,13.10
2023-05-11T01:26:46.460Z,13.13
2023-05-11T01:29:43.461Z,13.14
2023-05-11T01:32:18.433Z,13.14
2023-05-11T01:34:48.559Z,13.16
2023-05-11T01:37:20.584Z,13.17
2023-05-11T01:39:54.021Z,13.18
2023-05-11T01:42:26.258Z,13.17
2023-05-11T01:44:56.905Z,13.18
2023-05-11T01:47:29.440Z,13.17
2023-05-11T01:50:00.212Z,13.16
2023-05-11T01:52:29.296Z,13.14
2023-05-11T01:55:00.425Z,13.13
2023-05-11T01:57:30.142Z,13.12
2023-05-11T01:59:58.881Z,13.11
2023-05-11T02:02:30.742Z,13.12
2023-05-11T02:04:59.830Z,13.12
2023-05-11T02:07:30.434Z,13.13
2023-05-11T02:09:59.717Z,13.15
2023-05-11T02:12:28.809Z,13.17
2023-05-11T02:14:58.308Z,13.19
2023-05-11T02:17:29.031Z,13.21
2023-05-11T02:19:58.530Z,13.25
2023-05-11T02:22:29.154Z,13.28
2023-05-11T02:24:57.570Z,13.31
2023-05-11T02:27:26.001Z,13.33
2023-05-11T02:29:55.134Z,13.36
2023-05-11T02:32:26.284Z,13.37
2023-05-11T02:35:02.038Z,13.38
2023-05-11T02:37:31.993Z,13.41
2023-05-11T02:40:04.519Z,13.42
2023-05-11T02:42:38.030Z,13.45
2023-05-11T02:45:08.867Z,13.46
2023-05-11T02:47:42.619Z,13.48
2023-05-11T02:50:15.306Z,13.50
2023-05-11T02:52:47.852Z,13.50
2023-05-11T02:55:18.804Z,13.52
2023-05-11T02:57:47.301Z,13.54
2023-05-11T03:00:17.744Z,13.56
2023-05-11T03:02:46.441Z,13.58
2023-05-11T03:05:17.212Z,13.59
2023-05-11T03:07:45.581Z,13.60
2023-05-11T03:10:13.695Z,13.59
2023-05-11T03:12:45.177Z,13.59
2023-05-11T03:15:16.686Z,13.57
2023-05-11T03:17:47.968Z,13.55
2023-05-11T03:20:20.123Z,13.54
2023-05-11T03:22:48.619Z,13.56
2023-05-11T03:25:17.223Z,13.56
2023-05-11T03:27:47.311Z,13.56
2023-05-11T03:30:18.333Z,13.57
2023-05-11T03:32:50.022Z,13.57
2023-05-11T03:35:20.011Z,13.56
2023-05-11T03:37:50.086Z,13.56
2023-05-11T03:40:20.811Z,13.56
2023-05-11T03:42:56.026Z,13.58
2023-05-11T03:45:28.576Z,13.58
2023-05-11T03:47:58.334Z,13.59
2023-05-11T03:50:29.181Z,13.60
2023-05-11T03:52:57.724Z,13.59
2023-05-11T03:55:26.921Z,13.61
2023-05-11T03:57:55.065Z,13.61
2023-05-11T04:00:23.978Z,13.61
2023-05-11T04:02:53.381Z,13.62
2023-05-11T04:05:21.498Z,13.62
2023-05-11T04:07:52.184Z,13.60
2023-05-11T04:10:20.360Z,13.61
2023-05-11T04:12:48.664Z,13.63
2023-05-11T04:15:16.850Z,13.64
2023-05-11T04:17:44.961Z,13.66
2023-05-11T04:20:13.213Z,13.67
2023-05-11T04:22:41.268Z,13.67
2023-05-11T04:25:13.794Z,13.67
2023-05-11T04:27:42.081Z,13.68
2023-05-11T04:30:10.976Z,13.69
2023-05-11T04:32:40.573Z,13.70
2023-05-11T04:35:12.961Z,13.73
2023-05-11T04:37:41.288Z,13.75
2023-05-11T04:40:13.537Z,13.76
2023-05-11T04:42:43.517Z,13.78
2023-05-11T04:45:16.511Z,13.81
2023-05-11T04:47:45.203Z,13.81
2023-05-11T04:50:14.311Z,13.85
2023-05-11T04:52:42.345Z,13.86
2023-05-11T04:55:12.019Z,13.89
2023-05-11T04:57:40.618Z,13.93
2023-05-11T05:00:10.004Z,13.96
2023-05-11T05:02:38.164Z,13.98
2023-05-11T05:05:07.697Z,14.01
2023-05-11T05:07:35.753Z,14.05
2023-05-11T05:10:05.403Z,14.08
2023-05-11T05:12:34.854Z,14.11
2023-05-11T05:15:03.190Z,14.14
2023-05-11T05:17:31.442Z,14.17
2023-05-11T05:19:59.771Z,14.22
2023-05-11T05:22:27.939Z,14.27
2023-05-11T05:24:56.105Z,14.31
2023-05-11T05:27:24.187Z,14.35
2023-05-11T05:29:53.964Z,14.40
2023-05-11T05:32:23.794Z,14.46
2023-05-11T05:34:51.922Z,14.52
2023-05-11T05:37:20.872Z,14.57
2023-05-11T05:39:48.874Z,14.63
2023-05-11T05:42:17.461Z,14.72
2023-05-11T05:44:45.973Z,14.76
2023-05-11T05:47:16.276Z,14.81
2023-05-11T05:49:44.366Z,14.88
2023-05-11T05:52:12.468Z,14.98
2023-05-11T05:54:42.243Z,15.06
2023-05-11T05:57:10.337Z,15.18
2023-05-11T05:59:38.515Z,15.32
2023-05-11T06:02:07.528Z,15.46
2023-05-11T06:04:37.026Z,15.57
2023-05-11T06:07:05.519Z,15.63
2023-05-11T06:09:33.812Z,15.69
2023-05-11T06:12:02.301Z,15.77
2023-05-11T06:14:32.198Z,15.89
2023-05-11T06:17:00.753Z,15.94
2023-05-11T06:19:30.615Z,16.00
2023-05-11T06:22:00.995Z,16.04
2023-05-11T06:24:31.640Z,16.10
2023-05-11T06:27:00.754Z,16.16
2023-05-11T06:29:28.952Z,16.21
2023-05-11T06:31:58.946Z,16.29
2023-05-11T06:34:27.181Z,16.35
2023-05-11T06:36:59.901Z,16.44
2023-05-11T06:39:29.598Z,16.50
2023-05-11T06:42:00.128Z,16.52
2023-05-11T06:44:30.569Z,16.56
2023-05-11T06:47:01.051Z,16.64
2023-05-11T06:49:29.156Z,16.74
2023-05-11T06:51:57.212Z,16.83
2023-05-11T06:54:25.269Z,16.94
2023-05-11T06:56:54.699Z,17.05
2023-05-11T06:59:22.859Z,17.10
2023-05-11T07:01:51.005Z,17.10
2023-05-11T07:04:19.165Z,17.08
2023-05-11T07:06:47.356Z,17.04
2023-05-11T07:09:15.525Z,17.05
2023-05-11T07:11:43.570Z,17.10
2023-05-11T07:14:13.184Z,17.18
2023-05-11T07:16:41.265Z,17.27
2023-05-11T07:19:09.929Z,17.32
2023-05-11T07:21:38.192Z,17.34
2023-05-11T07:24:06.628Z,17.32
2023-05-11T07:26:34.922Z,17.29
2023-05-11T07:29:03.106Z,17.24
2023-05-11T07:31:33.672Z,17.21
2023-05-11T07:34:01.725Z,17.18
2023-05-11T07:36:30.050Z,17.14
2023-05-11T07:38:59.610Z,17.13
2023-05-11T07:41:27.798Z,17.20
2023-05-11T07:43:56.248Z,17.34
2023-05-11T07:46:24.318Z,17.45
2023-05-11T07:49:03.590Z,17.57
2023-05-11T07:51:36.096Z,17.65
2023-05-11T07:54:04.359Z,17.74
2023-05-11T07:56:32.474Z,17.83
2023-05-11T07:59:00.472Z,17.93
2023-05-11T08:01:28.524Z,18.02
2023-05-11T08:03:58.038Z,18.13
2023-05-11T08:06:26.056Z,18.23
2023-05-11T08:08:54.146Z,18.37
2023-05-11T08:11:22.467Z,18.50
2023-05-11T08:13:50.611Z,18.67
2023-05-11T08:16:18.741Z,18.82
2023-05-11T08:18:46.848Z,18.87
2023-05-11T08:21:17.692Z,18.83
2023-05-11T08:23:45.756Z,18.81
2023-05-11T08:26:13.848Z,18.80
2023-05-11T08:28:41.887Z,18.84
2023-05-11T08:31:10.400Z,18.93
2023-05-11T08:33:39.087Z,19.04
2023-05-11T08:36:08.806Z,19.27
2023-05-11T08:38:38.398Z,19.62
2023-05-11T08:41:07.857Z,19.97
2023-05-11T08:43:36.997Z,20.30
2023-05-11T08:46:07.483Z,20.62
2023-05-11T08:48:36.377Z,20.82
2023-05-11T08:51:05.043Z,21.02
2023-05-11T08:53:33.299Z,21.11
2023-05-11T08:56:06.887Z,21.24
2023-05-11T08:58:37.394Z,21.36
2023-05-11T09:01:06.734Z,21.16
2023-05-11T09:03:36.734Z,20.45
2023-05-11T09:06:07.355Z,19.99
2023-05-11T09:08:37.073Z,19.62
2023-05-11T09:11:07.155Z,19.12
2023-05-11T09:13:35.486Z,18.99
2023-05-11T09:16:04.396Z,18.76
2023-05-11T09:18:32.527Z,18.49
2023-05-11T09:21:02.477Z,18.32
2023-05-11T09:23:30.499Z,18.01
2023-05-11T09:25:58.588Z,17.84
2023-05-11T09:31:03.826Z,17.30
2023-05-11T09:33:32.494Z,17.13
2023-05-11T09:36:00.578Z,16.81
2023-05-11T09:38:28.709Z,16.69
2023-05-11T09:40:57.768Z,16.55
2023-05-11T09:43:28.735Z,16.38
2023-05-11T09:45:58.511Z,15.95
2023-05-11T09:48:29.491Z,15.71
2023-05-11T09:51:04.053Z,15.35
2023-05-11T09:53:36.941Z,15.22
2023-05-11T09:56:05.756Z,15.18
2023-05-11T09:58:52.439Z,15.10
2023-05-11T10:01:29.463Z,15.10
2023-05-11T10:04:06.090Z,15.14
2023-05-11T10:06:47.648Z,15.07
2023-05-11T10:09:17.517Z,15.24
2023-05-11T10:11:47.311Z,15.39
2023-05-11T10:14:17.859Z,15.45
2023-05-11T10:16:47.493Z,15.53
2023-05-11T10:19:17.007Z,15.46
2023-05-11T10:21:46.412Z,15.53
2023-05-11T10:24:16.692Z,15.64
2023-05-11T10:26:46.218Z,15.76
2023-05-11T10:29:16.146Z,15.75
2023-05-11T10:31:45.761Z,15.97
2023-05-11T10:34:14.363Z,16.21
2023-05-11T10:36:42.383Z,16.38
2023-05-11T10:39:10.733Z,16.42
2023-05-11T10:41:48.389Z,16.34
2023-05-11T10:44:50.273Z,16.24
2023-05-11T10:47:38.625Z,16.26
2023-05-11T10:50:37.336Z,16.31
2023-05-11T10:53:19.728Z,16.39
2023-05-11T10:56:06.234Z,16.26
2023-05-11T10:58:53.388Z,16.34
2023-05-11T11:01:37.627Z,16.27
2023-05-11T11:04:07.589Z,16.26
2023-05-11T11:06:37.694Z,16.31
2023-05-11T11:09:08.799Z,16.20
2023-05-11T11:11:39.224Z,16.05
2023-05-11T11:14:09.641Z,15.93
2023-05-11T11:16:40.328Z,15.87
2023-05-11T11:19:42.516Z,15.91
2023-05-11T11:22:44.849Z,15.79
2023-05-11T11:25:13.588Z,16.05
2023-05-11T11:27:59.423Z,16.39
2023-05-11T11:30:30.775Z,16.57
2023-05-11T11:33:34.794Z,16.78
2023-05-11T11:36:02.986Z,16.85
2023-05-11T11:38:33.222Z,17.10
2023-05-11T11:41:01.360Z,17.29
2023-05-11T11:43:44.793Z,17.36
2023-05-11T11:46:27.292Z,17.60
2023-05-11T11:49:08.501Z,17.86
2023-05-11T11:51:40.452Z,18.06
2023-05-11T11:54:09.611Z,18.34
2023-05-11T11:56:41.973Z,18.59
2023-05-11T11:59:13.981Z,18.42
2023-05-11T12:01:44.655Z,18.23
2023-05-11T12:04:40.799Z,18.48
2023-05-11T12:07:13.928Z,18.70
2023-05-11T12:09:44.707Z,18.93
2023-05-11T12:12:12.815Z,18.80
2023-05-11T12:14:44.756Z,18.59
2023-05-11T12:17:16.414Z,18.26
2023-05-11T12:19:46.690Z,18.15
2023-05-11T12:22:16.475Z,18.09
2023-05-11T12:24:45.087Z,18.50
2023-05-11T12:27:13.416Z,18.76
2023-05-11T12:29:41.826Z,18.85
2023-05-11T12:32:14.166Z,18.90
2023-05-11T12:34:42.572Z,18.89
2023-05-11T12:37:12.563Z,19.04
2023-05-11T12:39:40.701Z,19.18
2023-05-11T12:42:08.970Z,18.92
2023-05-11T12:44:37.311Z,18.43
2023-05-11T12:47:05.939Z,18.23
2023-05-11T12:49:34.448Z,17.96
2023-05-11T12:52:07.963Z,18.02
2023-05-11T12:54:39.235Z,17.97
2023-05-11T12:57:08.804Z,18.20
2023-05-11T12:59:38.750Z,18.35
2023-05-11T13:02:11.598Z,18.20
2023-05-11T13:04:41.358Z,18.24
2023-05-11T13:07:09.972Z,18.15
2023-05-11T13:09:40.433Z,17.88
2023-05-11T13:12:14.415Z,18.02
2023-05-11T13:14:42.676Z,18.03
2023-05-11T13:17:11.197Z,18.17
2023-05-11T13:19:39.541Z,18.37
2023-05-11T13:22:07.977Z,18.34
2023-05-11T13:24:36.200Z,18.28
2023-05-11T13:27:05.964Z,18.32
2023-05-11T13:29:34.407Z,18.70
2023-05-11T13:32:02.577Z,18.92
2023-05-11T13:34:30.786Z,18.76
2023-05-11T13:36:58.811Z,18.84
2023-05-11T13:39:26.913Z,18.64
2023-05-11T13:41:56.156Z,18.44
2023-05-11T13:44:25.662Z,18.28
2023-05-11T13:46:55.878Z,18.23
2023-05-11T13:49:23.988Z,18.04
2023-05-11T13:51:52.550Z,17.98
2023-05-11T13:54:21.374Z,18.02
2023-05-11T13:56:49.616Z,18.05
2023-05-11T13:59:17.619Z,17.98
2023-05-11T14:01:47.371Z,18.08
2023-05-11T14:04:15.461Z,18.40
2023-05-11T14:06:43.568Z,18.64
2023-05-11T14:09:12.107Z,18.66
2023-05-11T14:11:40.128Z,18.56
2023-05-11T14:14:08.281Z,18.57
2023-05-11T14:16:37.285Z,18.64
2023-05-11T14:19:06.977Z,18.83
2023-05-11T14:21:35.228Z,18.94
2023-05-11T14:24:11.295Z,18.95
2023-05-11T14:26:40.533Z,18.98
2023-05-11T14:29:08.672Z,18.93
2023-05-11T14:31:37.639Z,18.90
2023-05-11T14:34:07.450Z,18.79
2023-05-11T14:36:35.483Z,18.57
2023-05-11T14:39:04.173Z,18.18
2023-05-11T14:41:32.348Z,18.09
2023-05-11T14:44:00.396Z,18.12
2023-05-11T14:46:28.761Z,18.04
2023-05-11T14:48:56.984Z,17.81
2023-05-11T14:51:26.436Z,17.69
2023-05-11T14:53:54.677Z,17.71
2023-05-11T14:56:23.394Z,17.71
2023-05-11T14:58:51.617Z,17.73
2023-05-11T15:01:19.768Z,17.61
2023-05-11T15:03:48.099Z,17.63
2023-05-11T15:06:21.063Z,17.59
2023-05-11T15:08:51.520Z,17.59
2023-05-11T15:11:19.841Z,17.40
2023-05-11T15:13:48.492Z,17.32
2023-05-11T15:16:16.777Z,17.30
2023-05-11T15:18:44.955Z,17.13
2023-05-11T15:21:13.145Z,17.07
2023-05-11T15:23:41.201Z,17.00
2023-05-11T15:26:10.779Z,16.89
2023-05-11T15:28:39.116Z,16.82
2023-05-11T15:31:07.202Z,16.62
2023-05-11T15:33:35.330Z,16.55
2023-05-11T15:36:03.538Z,16.39
2023-05-11T15:38:31.663Z,16.46
2023-05-11T15:40:59.843Z,16.35
2023-05-11T15:43:29.328Z,16.42
2023-05-11T15:45:57.639Z,16.50
2023-05-11T15:48:25.990Z,16.50
2023-05-11T15:50:54.073Z,16.56
2023-05-11T15:53:22.095Z,16.46
2023-05-11T15:55:51.308Z,16.53
2023-05-11T15:58:19.458Z,16.39
2023-05-11T16:00:49.307Z,16.40
2023-05-11T16:03:17.677Z,16.33
2023-05-11T16:05:46.262Z,16.17
2023-05-11T16:08:14.695Z,16.10
2023-05-11T16:10:42.861Z,16.02
2023-05-11T16:13:13.803Z,15.91
2023-05-11T16:15:42.017Z,15.82
2023-05-11T16:18:12.302Z,15.79
2023-05-11T16:20:40.451Z,15.75
2023-05-11T16:23:08.522Z,15.66
2023-05-11T16:25:36.869Z,15.59
2023-05-11T16:28:05.870Z,15.59
2023-05-11T16:30:34.095Z,15.56
2023-05-11T16:33:02.301Z,15.53
2023-05-11T16:35:32.077Z,15.49
2023-05-11T16:38:00.576Z,15.47
2023-05-11T16:40:28.576Z,15.44
2023-05-11T16:42:56.641Z,15.37
2023-05-11T16:45:24.616Z,15.22
2023-05-11T16:47:52.789Z,15.18
2023-05-11T16:50:20.993Z,15.13
2023-05-11T16:52:50.616Z,15.07
2023-05-11T16:55:19.477Z,15.02
2023-05-11T16:57:48.580Z,14.98
2023-05-11T17:00:17.507Z,14.99
2023-05-11T17:02:46.280Z,14.96
2023-05-11T17:05:18.037Z,14.92
2023-05-11T17:07:46.802Z,14.83
2023-05-11T17:10:16.408Z,14.79
2023-05-11T17:12:44.511Z,14.70
2023-05-11T17:15:12.728Z,14.65
2023-05-11T17:17:41.269Z,14.60
2023-05-11T17:20:10.495Z,14.60
2023-05-11T17:22:38.965Z,14.57
2023-05-11T17:25:07.815Z,14.59
2023-05-11T17:27:37.909Z,14.55
2023-05-11T17:30:07.375Z,14.52
2023-05-11T17:32:36.779Z,14.45
2023-05-11T17:35:05.290Z,14.44
2023-05-11T17:37:33.503Z,14.44
2023-05-11T17:40:02.196Z,14.39
2023-05-11T17:42:30.928Z,14.41
2023-05-11T17:45:00.338Z,14.36
2023-05-11T17:47:29.034Z,14.31
2023-05-11T17:49:57.137Z,14.22
2023-05-11T17:52:25.874Z,14.21
2023-05-11T17:54:54.027Z,14.18
2023-05-11T17:57:23.670Z,14.16
2023-05-11T17:59:51.773Z,14.10
2023-05-11T18:02:21.218Z,14.10
2023-05-11T18:04:49.215Z,14.06
2023-05-11T18:07:17.363Z,14.05
2023-05-11T18:09:45.534Z,14.04
2023-05-11T18:12:13.644Z,14.04
2023-05-11T18:14:41.772Z,13.99
2023-05-11T18:17:09.854Z,14.02
2023-05-11T18:19:39.665Z,14.01
2023-05-11T18:22:08.131Z,13.97
2023-05-11T18:24:36.201Z,14.00
2023-05-11T18:27:04.217Z,14.00
2023-05-11T18:29:32.250Z,14.00
2023-05-11T18:32:00.349Z,13.99
2023-05-11T18:34:28.668Z,13.99
2023-05-11T18:36:58.278Z,13.98
2023-05-11T18:39:26.310Z,13.94
2023-05-11T18:41:54.696Z,13.92
2023-05-11T18:44:22.801Z,13.91
2023-05-11T18:46:51.012Z,13.87
2023-05-11T18:49:19.271Z,13.85
2023-05-11T18:51:49.773Z,13.83
2023-05-11T18:54:19.224Z,13.82
2023-05-11T18:56:47.436Z,13.80
2023-05-11T18:59:15.399Z,13.76
2023-05-11T19:01:48.203Z,13.75
2023-05-11T19:04:19.741Z,13.75
2023-05-11T19:06:48.062Z,13.69
2023-05-11T19:09:16.045Z,13.66
2023-05-11T19:11:45.579Z,13.67
2023-05-11T19:14:14.687Z,13.69
2023-05-11T19:16:43.205Z,13.70
2023-05-11T19:19:11.608Z,13.70
2023-05-11T19:21:41.783Z,13.70
2023-05-11T19:24:10.740Z,13.69
2023-05-11T19:26:39.776Z,13.70
2023-05-11T19:29:09.635Z,13.71
2023-05-11T19:31:38.020Z,13.69
2023-05-11T19:34:06.859Z,13.69
2023-05-11T19:36:35.387Z,13.66
2023-05-11T19:39:04.566Z,13.68
2023-05-11T19:41:33.231Z,13.70
2023-05-11T19:44:01.881Z,13.71
2023-05-11T19:46:31.384Z,13.72
2023-05-11T19:48:59.466Z,13.74
2023-05-11T19:51:27.519Z,13.75
2023-05-11T19:53:55.935Z,13.75
2023-05-11T19:56:23.970Z,13.74
2023-05-11T19:58:52.034Z,13.73
2023-05-11T20:01:20.066Z,13.74
2023-05-11T20:03:49.565Z,13.69
2023-05-11T20:06:18.784Z,13.73
2023-05-11T20:08:48.770Z,13.74
2023-05-11T20:11:17.096Z,13.74
2023-05-11T20:13:47.031Z,13.72
2023-05-11T20:16:15.293Z,13.71
2023-05-11T20:18:43.638Z,13.72
2023-05-11T20:21:13.274Z,13.71
2023-05-11T20:23:41.418Z,13.72
2023-05-11T20:26:09.402Z,13.71
2023-05-11T20:28:39.420Z,13.73
2023-05-11T20:31:09.621Z,13.72
2023-05-11T20:36:09.465Z,13.75
2023-05-11T20:38:38.845Z,13.77
2023-05-11T20:41:07.662Z,13.78
2023-05-11T20:43:35.685Z,13.81
2023-05-11T20:46:07.663Z,13.82
2023-05-11T20:48:39.887Z,13.82
2023-05-11T20:51:08.829Z,13.84
2023-05-11T20:53:38.423Z,13.83
2023-05-11T20:56:06.776Z,13.85
2023-05-11T20:58:34.902Z,13.87
2023-05-11T21:01:03.034Z,13.87
2023-05-11T21:03:31.168Z,13.89
2023-05-11T21:05:59.180Z,13.91
2023-05-11T21:08:27.207Z,13.94
2023-05-11T21:10:56.750Z,13.96
2023-05-11T21:13:24.800Z,13.99
2023-05-11T21:15:52.885Z,13.99
2023-05-11T21:18:20.969Z,14.00
2023-05-11T21:20:49.014Z,14.02
2023-05-11T21:23:17.044Z,14.02
2023-05-11T21:25:45.257Z,14.02
2023-05-11T21:28:14.629Z,14.03
2023-05-11T21:30:42.776Z,14.02
2023-05-11T21:33:11.915Z,14.03
2023-05-11T21:35:40.062Z,13.99
2023-05-11T21:38:08.171Z,13.95
2023-05-11T21:40:36.192Z,13.91
2023-05-11T21:43:04.179Z,13.88
2023-05-11T21:45:33.919Z,13.86
2023-05-11T21:48:02.384Z,13.85
2023-05-11T21:50:30.503Z,13.84
2023-05-11T21:52:59.027Z,13.81
2023-05-11T21:55:27.056Z,13.81
2023-05-11T21:57:55.052Z,13.81
2023-05-11T22:00:23.776Z,13.80
2023-05-11T22:02:53.287Z,13.80
2023-05-11T22:05:21.442Z,13.78
2023-05-11T22:07:49.421Z,13.75
2023-05-11T22:10:18.766Z,13.72
2023-05-11T22:12:46.972Z,13.70
2023-05-11T22:15:15.041Z,13.68
2023-05-11T22:17:43.329Z,13.65
2023-05-11T22:20:13.200Z,13.63
2023-05-11T22:22:41.324Z,13.62
2023-05-11T22:25:10.360Z,13.60
2023-05-11T22:27:38.404Z,13.57
2023-05-11T22:30:07.896Z,13.52
2023-05-11T22:32:36.167Z,13.47
2023-05-11T22:35:04.398Z,13.40
2023-05-11T22:37:34.011Z,13.31
2023-05-11T22:40:02.171Z,13.21
2023-05-11T22:42:30.954Z,13.12
2023-05-11T22:44:59.152Z,13.06
2023-05-11T22:47:27.917Z,12.99
2023-05-11T22:49:56.290Z,12.94
2023-05-11T22:52:24.323Z,12.92
2023-05-11T22:54:57.971Z,12.91
2023-05-11T22:57:26.894Z,12.89
2023-05-11T22:59:54.908Z,12.86
2023-05-11T23:02:23.179Z,12.80
2023-05-11T23:04:52.239Z,12.74
2023-05-11T23:07:20.587Z,12.68
2023-05-11T23:09:49.831Z,12.60
2023-05-11T23:12:19.438Z,12.51
2023-05-11T23:14:47.610Z,12.42
2023-05-11T23:17:15.704Z,12.33
2023-05-11T23:19:44.429Z,12.23
2023-05-11T23:22:12.520Z,12.13
2023-05-11T23:24:40.570Z,12.03
2023-05-11T23:27:08.663Z,11.93
2023-05-11T23:29:38.174Z,11.86
2023-05-11T23:32:06.680Z,11.80
2023-05-11T23:34:34.805Z,11.75
2023-05-11T23:37:02.846Z,11.70
2023-05-11T23:39:31.027Z,11.66
2023-05-11T23:41:59.124Z,11.61
2023-05-11T23:44:27.638Z,11.54
2023-05-11T23:46:57.253Z,11.47
2023-05-11T23:49:25.995Z,11.40
2023-05-11T23:51:54.109Z,11.33
2023-05-11T23:54:22.147Z,11.27
2023-05-11T23:56:50.156Z,11.20
2023-05-11T23:59:18.179Z,11.14
